Airfield :







YOU CAN JOIN US ON...

 
LOGIN :

Register | Disclaimer

   EN    FR    IT 

 









Legend :    VFR   Marginal VFR   IFR   Intensive IFR   Very Intensive IFR
Visi :
Ceiling :
>= 8 km
>= 3000ft
5 to 8 km
1000 to 3000 ft
1500m to 5 km
500 to 1000 ft
800 to 1500m
200 to 500 ft
< 800m
< 200 ft
Symbols :   Thunderstorms  Fog  Heavy snow  Heavy precipitations  Wind > 20 kt






- Airport Elevation : 56 ft
- IATA code : MCP


SBMQ - Macapa Int.

CURRENT METAR :
  • 041000Z 30004KT 4000 BR BKN003 SCT080 24/24 Q1010

EXPIRED METARs :
  • 040900Z 30003KT 2000 BR BKN002 24/24 Q1009
  • 040825Z 30003KT 6000 BKN002 24/24 Q1009
  • 040800Z 32002KT 9999 FEW017 24/24 Q1009

TAF TAF SBMQ
Valid from the 04 at 06:00 until the 05 at 06:00 UTC


040200Z 0406/0506 02005KT 8000 SCT012 TN25/0410Z TX33/0418Z
PROB30 0406/0410 4000 RA BR BKN007
BECMG 0410/0412 35005KT
BECMG 0413/0415 07010KT 9999 SCT017
BECMG 0416/0418 SCT025 FEW030TCU
BECMG 0419/0421 04010KT 8000 TS BKN017 FEW030CB
BECMG 0501/0503 07010KT NSW SCT017
BECMG 0504/0506 04005KT SCT012 RMK PGS



MET'MAP, your aeronautical weather chart ! - Copyright ORBIFLY December 2007 - Disclaimer

ORBIFLY MET'MAP TEAM :

Programming & Development : Alexandra Zaïnal
Concept & original design : Baudouin d'Aumeries
Assistance for programming : Marc-Olivier Méhu
Technical & hardware support : Manuel Goepfert

Contact : metmap@orbifly.com




SOURCES & CREDITS :

   NOAA